sensor_id;sensor_type;location;lat;lon;timestamp;P1;durP1;ratioP1;P2;durP2;ratioP2
19808;SDS011;48538;32.784;-96.802;2023-06-05T00:02:07;3.38;;;3.08;;
19808;SDS011;48538;32.784;-96.802;2023-06-05T00:04:34;3.47;;;3.00;;
19808;SDS011;48538;32.784;-96.802;2023-06-05T00:07:01;5.40;;;2.72;;
19808;SDS011;48538;32.784;-96.802;2023-06-05T00:09:28;4.72;;;3.00;;
19808;SDS011;48538;32.784;-96.802;2023-06-05T00:11:54;5.70;;;2.92;;
19808;SDS011;48538;32.784;-96.802;2023-06-05T00:14:21;5.13;;;3.30;;
19808;SDS011;48538;32.784;-96.802;2023-06-05T00:16:47;3.72;;;3.10;;
19808;SDS011;48538;32.784;-96.802;2023-06-05T00:19:16;4.80;;;3.30;;
19808;SDS011;48538;32.784;-96.802;2023-06-05T00:21:43;3.60;;;2.60;;
19808;SDS011;48538;32.784;-96.802;2023-06-05T00:24:09;6.78;;;3.35;;
19808;SDS011;48538;32.784;-96.802;2023-06-05T00:26:36;3.65;;;2.75;;
19808;SDS011;48538;32.784;-96.802;2023-06-05T00:29:02;6.82;;;2.92;;
19808;SDS011;48538;32.784;-96.802;2023-06-05T00:31:28;4.45;;;2.92;;
19808;SDS011;48538;32.784;-96.802;2023-06-05T00:33:55;4.05;;;3.10;;
19808;SDS011;48538;32.784;-96.802;2023-06-05T00:36:21;4.22;;;2.70;;
19808;SDS011;48538;32.784;-96.802;2023-06-05T00:38:51;2.90;;;2.60;;
19808;SDS011;48538;32.784;-96.802;2023-06-05T00:41:17;6.00;;;2.80;;
19808;SDS011;48538;32.784;-96.802;2023-06-05T00:43:44;3.95;;;3.00;;
19808;SDS011;48538;32.784;-96.802;2023-06-05T00:46:10;4.28;;;3.03;;
19808;SDS011;48538;32.784;-96.802;2023-06-05T00:48:37;6.93;;;3.40;;
19808;SDS011;48538;32.784;-96.802;2023-06-05T00:51:05;3.15;;;2.63;;
19808;SDS011;48538;32.784;-96.802;2023-06-05T00:53:32;5.57;;;3.28;;
19808;SDS011;48538;32.784;-96.802;2023-06-05T00:56:02;3.28;;;2.70;;
19808;SDS011;48538;32.784;-96.802;2023-06-05T00:58:29;2.75;;;2.50;;
19808;SDS011;48538;32.784;-96.802;2023-06-05T01:00:57;5.07;;;3.15;;
19808;SDS011;48538;32.784;-96.802;2023-06-05T01:03:26;3.47;;;2.80;;
19808;SDS011;48538;32.784;-96.802;2023-06-05T01:05:54;4.72;;;2.88;;
19808;SDS011;48538;32.784;-96.802;2023-06-05T01:08:29;6.13;;;3.17;;
19808;SDS011;48538;32.784;-96.802;2023-06-05T01:11:04;3.65;;;2.88;;
19808;SDS011;48538;32.784;-96.802;2023-06-05T01:13:55;4.05;;;2.58;;
19808;SDS011;48538;32.784;-96.802;2023-06-05T01:16:48;3.33;;;3.03;;
19808;SDS011;48538;32.784;-96.802;2023-06-05T01:19:18;3.20;;;2.72;;
19808;SDS011;48538;32.784;-96.802;2023-06-05T01:21:57;3.90;;;2.80;;
19808;SDS011;48538;32.784;-96.802;2023-06-05T01:24:24;3.42;;;2.70;;
19808;SDS011;48538;32.784;-96.802;2023-06-05T01:32:06;5.82;;;3.40;;
19808;SDS011;48538;32.784;-96.802;2023-06-05T01:34:41;4.15;;;3.10;;
19808;SDS011;48538;32.784;-96.802;2023-06-05T01:37:10;5.13;;;3.40;;
19808;SDS011;48538;32.784;-96.802;2023-06-05T01:39:42;5.60;;;3.17;;
19808;SDS011;48538;32.784;-96.802;2023-06-05T01:42:10;3.15;;;2.85;;
19808;SDS011;48538;32.784;-96.802;2023-06-05T01:44:36;3.67;;;2.80;;
19808;SDS011;48538;32.784;-96.802;2023-06-05T01:47:05;5.95;;;3.60;;
19808;SDS011;48538;32.784;-96.802;2023-06-05T01:49:32;5.47;;;3.30;;
19808;SDS011;48538;32.784;-96.802;2023-06-05T01:51:59;5.50;;;3.35;;
19808;SDS011;48538;32.784;-96.802;2023-06-05T01:54:25;3.40;;;2.88;;
19808;SDS011;48538;32.784;-96.802;2023-06-05T01:56:51;4.70;;;3.05;;
19808;SDS011;48538;32.784;-96.802;2023-06-05T01:59:18;5.18;;;3.13;;
19808;SDS011;48538;32.784;-96.802;2023-06-05T02:01:45;4.65;;;3.67;;
19808;SDS011;48538;32.784;-96.802;2023-06-05T02:04:11;5.20;;;3.50;;
19808;SDS011;48538;32.784;-96.802;2023-06-05T02:06:44;3.38;;;3.08;;
19808;SDS011;48538;32.784;-96.802;2023-06-05T02:09:11;4.10;;;3.17;;
19808;SDS011;48538;32.784;-96.802;2023-06-05T02:11:38;5.50;;;3.60;;
19808;SDS011;48538;32.784;-96.802;2023-06-05T02:14:07;5.03;;;3.03;;
19808;SDS011;48538;32.784;-96.802;2023-06-05T02:16:37;4.18;;;2.80;;
19808;SDS011;48538;32.784;-96.802;2023-06-05T02:19:05;3.95;;;2.80;;
19808;SDS011;48538;32.784;-96.802;2023-06-05T02:21:31;4.57;;;3.40;;
19808;SDS011;48538;32.784;-96.802;2023-06-05T02:23:59;8.30;;;3.70;;
19808;SDS011;48538;32.784;-96.802;2023-06-05T02:26:26;4.75;;;3.10;;
19808;SDS011;48538;32.784;-96.802;2023-06-05T02:28:52;4.20;;;3.30;;
19808;SDS011;48538;32.784;-96.802;2023-06-05T02:31:25;3.88;;;3.00;;
19808;SDS011;48538;32.784;-96.802;2023-06-05T02:33:54;4.43;;;2.92;;
19808;SDS011;48538;32.784;-96.802;2023-06-05T02:36:21;4.22;;;3.10;;
19808;SDS011;48538;32.784;-96.802;2023-06-05T02:38:58;3.72;;;2.92;;
19808;SDS011;48538;32.784;-96.802;2023-06-05T02:41:25;7.15;;;3.38;;
19808;SDS011;48538;32.784;-96.802;2023-06-05T02:43:52;4.45;;;3.00;;
19808;SDS011;48538;32.784;-96.802;2023-06-05T02:46:20;5.30;;;3.05;;
19808;SDS011;48538;32.784;-96.802;2023-06-05T02:48:53;5.78;;;3.05;;
19808;SDS011;48538;32.784;-96.802;2023-06-05T02:51:19;3.50;;;2.90;;
19808;SDS011;48538;32.784;-96.802;2023-06-05T02:53:46;4.82;;;3.63;;
19808;SDS011;48538;32.784;-96.802;2023-06-05T02:56:12;5.18;;;3.22;;
19808;SDS011;48538;32.784;-96.802;2023-06-05T02:58:40;4.60;;;3.47;;
19808;SDS011;48538;32.784;-96.802;2023-06-05T03:01:09;4.18;;;3.00;;
19808;SDS011;48538;32.784;-96.802;2023-06-05T03:03:36;3.88;;;3.10;;
19808;SDS011;48538;32.784;-96.802;2023-06-05T03:06:02;4.20;;;2.90;;
19808;SDS011;48538;32.784;-96.802;2023-06-05T03:08:35;4.35;;;2.90;;
19808;SDS011;48538;32.784;-96.802;2023-06-05T03:11:03;2.47;;;2.00;;
19808;SDS011;48538;32.784;-96.802;2023-06-05T03:13:30;2.17;;;1.88;;
19808;SDS011;48538;32.784;-96.802;2023-06-05T03:15:58;2.47;;;1.90;;
19808;SDS011;48538;32.784;-96.802;2023-06-05T03:18:29;1.98;;;1.77;;
19808;SDS011;48538;32.784;-96.802;2023-06-05T03:20:56;2.75;;;1.90;;
19808;SDS011;48538;32.784;-96.802;2023-06-05T03:23:25;2.85;;;1.85;;
19808;SDS011;48538;32.784;-96.802;2023-06-05T03:25:53;2.17;;;1.95;;
19808;SDS011;48538;32.784;-96.802;2023-06-05T03:28:20;3.00;;;2.00;;
19808;SDS011;48538;32.784;-96.802;2023-06-05T03:30:48;2.85;;;1.80;;
19808;SDS011;48538;32.784;-96.802;2023-06-05T03:33:14;6.05;;;2.10;;
19808;SDS011;48538;32.784;-96.802;2023-06-05T03:35:42;3.33;;;2.40;;
19808;SDS011;48538;32.784;-96.802;2023-06-05T03:38:11;3.20;;;2.10;;
19808;SDS011;48538;32.784;-96.802;2023-06-05T03:40:38;2.38;;;2.03;;
19808;SDS011;48538;32.784;-96.802;2023-06-05T03:43:05;2.75;;;2.05;;
19808;SDS011;48538;32.784;-96.802;2023-06-05T03:45:32;3.58;;;2.40;;
19808;SDS011;48538;32.784;-96.802;2023-06-05T03:48:00;3.55;;;2.35;;
19808;SDS011;48538;32.784;-96.802;2023-06-05T03:50:28;3.55;;;2.53;;
19808;SDS011;48538;32.784;-96.802;2023-06-05T03:52:57;4.88;;;2.20;;
19808;SDS011;48538;32.784;-96.802;2023-06-05T03:55:29;4.10;;;2.75;;
19808;SDS011;48538;32.784;-96.802;2023-06-05T03:58:15;3.13;;;2.38;;
19808;SDS011;48538;32.784;-96.802;2023-06-05T04:00:42;3.78;;;2.67;;
19808;SDS011;48538;32.784;-96.802;2023-06-05T04:03:10;3.25;;;2.20;;
19808;SDS011;48538;32.784;-96.802;2023-06-05T04:05:38;2.90;;;2.40;;
19808;SDS011;48538;32.784;-96.802;2023-06-05T04:08:05;3.42;;;2.15;;
19808;SDS011;48538;32.784;-96.802;2023-06-05T04:10:32;2.75;;;2.30;;
19808;SDS011;48538;32.784;-96.802;2023-06-05T04:12:59;3.63;;;2.30;;
19808;SDS011;48538;32.784;-96.802;2023-06-05T04:15:25;2.75;;;2.08;;
19808;SDS011;48538;32.784;-96.802;2023-06-05T04:17:52;3.90;;;2.20;;
19808;SDS011;48538;32.784;-96.802;2023-06-05T04:20:19;2.13;;;1.88;;
19808;SDS011;48538;32.784;-96.802;2023-06-05T04:22:45;2.30;;;2.05;;
19808;SDS011;48538;32.784;-96.802;2023-06-05T04:25:12;3.47;;;2.20;;
19808;SDS011;48538;32.784;-96.802;2023-06-05T04:27:39;3.75;;;2.30;;
19808;SDS011;48538;32.784;-96.802;2023-06-05T04:30:06;2.83;;;1.90;;
19808;SDS011;48538;32.784;-96.802;2023-06-05T04:32:34;2.33;;;2.10;;
19808;SDS011;48538;32.784;-96.802;2023-06-05T04:35:08;3.83;;;2.60;;
19808;SDS011;48538;32.784;-96.802;2023-06-05T04:37:35;3.15;;;2.22;;
19808;SDS011;48538;32.784;-96.802;2023-06-05T04:40:03;4.68;;;3.25;;
19808;SDS011;48538;32.784;-96.802;2023-06-05T04:42:36;6.85;;;2.40;;
19808;SDS011;48538;32.784;-96.802;2023-06-05T04:45:03;2.92;;;2.38;;
19808;SDS011;48538;32.784;-96.802;2023-06-05T04:47:33;3.08;;;2.35;;
19808;SDS011;48538;32.784;-96.802;2023-06-05T04:50:00;3.28;;;2.50;;
19808;SDS011;48538;32.784;-96.802;2023-06-05T04:52:32;3.75;;;2.40;;
19808;SDS011;48538;32.784;-96.802;2023-06-05T04:55:00;4.43;;;2.45;;
19808;SDS011;48538;32.784;-96.802;2023-06-05T04:57:27;3.72;;;2.58;;
19808;SDS011;48538;32.784;-96.802;2023-06-05T04:59:54;3.80;;;2.60;;
19808;SDS011;48538;32.784;-96.802;2023-06-05T05:02:22;3.75;;;2.60;;
19808;SDS011;48538;32.784;-96.802;2023-06-05T05:04:48;5.07;;;2.92;;
19808;SDS011;48538;32.784;-96.802;2023-06-05T05:07:15;4.30;;;2.60;;
19808;SDS011;48538;32.784;-96.802;2023-06-05T05:09:45;3.05;;;2.65;;
19808;SDS011;48538;32.784;-96.802;2023-06-05T05:12:11;3.17;;;2.45;;
19808;SDS011;48538;32.784;-96.802;2023-06-05T05:14:37;4.50;;;3.00;;
19808;SDS011;48538;32.784;-96.802;2023-06-05T05:17:06;2.97;;;2.58;;
19808;SDS011;48538;32.784;-96.802;2023-06-05T05:19:33;4.32;;;2.40;;
19808;SDS011;48538;32.784;-96.802;2023-06-05T05:21:59;3.30;;;2.60;;
19808;SDS011;48538;32.784;-96.802;2023-06-05T05:24:25;4.93;;;2.90;;
19808;SDS011;48538;32.784;-96.802;2023-06-05T05:26:52;5.22;;;3.05;;
19808;SDS011;48538;32.784;-96.802;2023-06-05T05:29:18;4.00;;;2.60;;
19808;SDS011;48538;32.784;-96.802;2023-06-05T05:31:45;4.57;;;2.70;;
19808;SDS011;48538;32.784;-96.802;2023-06-05T05:34:11;5.28;;;2.53;;
19808;SDS011;48538;32.784;-96.802;2023-06-05T05:36:37;5.85;;;3.28;;
19808;SDS011;48538;32.784;-96.802;2023-06-05T05:39:04;3.72;;;2.40;;
19808;SDS011;48538;32.784;-96.802;2023-06-05T05:41:32;4.95;;;2.58;;
19808;SDS011;48538;32.784;-96.802;2023-06-05T05:43:59;3.58;;;2.80;;
19808;SDS011;48538;32.784;-96.802;2023-06-05T05:46:25;3.35;;;2.35;;
19808;SDS011;48538;32.784;-96.802;2023-06-05T05:48:51;3.63;;;2.53;;
19808;SDS011;48538;32.784;-96.802;2023-06-05T05:51:17;4.00;;;2.67;;
19808;SDS011;48538;32.784;-96.802;2023-06-05T05:53:44;6.15;;;2.80;;
19808;SDS011;48538;32.784;-96.802;2023-06-05T05:56:10;6.22;;;2.90;;
19808;SDS011;48538;32.784;-96.802;2023-06-05T05:58:36;4.00;;;2.78;;
19808;SDS011;48538;32.784;-96.802;2023-06-05T06:01:03;4.43;;;2.60;;
19808;SDS011;48538;32.784;-96.802;2023-06-05T06:03:29;5.22;;;2.95;;
19808;SDS011;48538;32.784;-96.802;2023-06-05T06:05:57;3.63;;;2.60;;
19808;SDS011;48538;32.784;-96.802;2023-06-05T06:08:24;5.10;;;3.00;;
19808;SDS011;48538;32.784;-96.802;2023-06-05T06:10:52;3.05;;;2.67;;
19808;SDS011;48538;32.784;-96.802;2023-06-05T06:13:18;5.50;;;3.13;;
19808;SDS011;48538;32.784;-96.802;2023-06-05T06:15:45;4.65;;;2.80;;
19808;SDS011;48538;32.784;-96.802;2023-06-05T06:18:11;3.17;;;2.70;;
19808;SDS011;48538;32.784;-96.802;2023-06-05T06:20:37;4.85;;;2.90;;
19808;SDS011;48538;32.784;-96.802;2023-06-05T06:23:04;6.38;;;3.45;;
19808;SDS011;48538;32.784;-96.802;2023-06-05T06:25:30;4.38;;;3.28;;
19808;SDS011;48538;32.784;-96.802;2023-06-05T06:28:00;3.85;;;2.83;;
19808;SDS011;48538;32.784;-96.802;2023-06-05T06:30:26;4.25;;;3.72;;
19808;SDS011;48538;32.784;-96.802;2023-06-05T06:32:53;5.05;;;3.10;;
19808;SDS011;48538;32.784;-96.802;2023-06-05T06:35:23;5.95;;;3.47;;
19808;SDS011;48538;32.784;-96.802;2023-06-05T06:37:52;4.32;;;3.20;;
19808;SDS011;48538;32.784;-96.802;2023-06-05T06:40:20;5.18;;;2.90;;
19808;SDS011;48538;32.784;-96.802;2023-06-05T06:42:48;5.40;;;3.20;;
19808;SDS011;48538;32.784;-96.802;2023-06-05T06:45:16;3.75;;;2.88;;
19808;SDS011;48538;32.784;-96.802;2023-06-05T06:47:43;5.43;;;3.15;;
19808;SDS011;48538;32.784;-96.802;2023-06-05T06:50:09;5.15;;;3.28;;
19808;SDS011;48538;32.784;-96.802;2023-06-05T06:52:36;5.20;;;3.20;;
19808;SDS011;48538;32.784;-96.802;2023-06-05T06:55:02;5.53;;;3.50;;
19808;SDS011;48538;32.784;-96.802;2023-06-05T06:57:28;7.22;;;2.95;;
19808;SDS011;48538;32.784;-96.802;2023-06-05T06:59:55;4.63;;;3.33;;
19808;SDS011;48538;32.784;-96.802;2023-06-05T07:02:22;4.55;;;3.40;;
19808;SDS011;48538;32.784;-96.802;2023-06-05T07:04:50;4.80;;;3.08;;
19808;SDS011;48538;32.784;-96.802;2023-06-05T07:07:18;6.00;;;3.00;;
19808;SDS011;48538;32.784;-96.802;2023-06-05T07:09:48;5.57;;;3.20;;
19808;SDS011;48538;32.784;-96.802;2023-06-05T07:12:16;12.70;;;4.15;;
19808;SDS011;48538;32.784;-96.802;2023-06-05T07:14:44;6.32;;;4.03;;
19808;SDS011;48538;32.784;-96.802;2023-06-05T07:17:11;6.18;;;3.85;;
19808;SDS011;48538;32.784;-96.802;2023-06-05T07:19:38;6.45;;;4.15;;
19808;SDS011;48538;32.784;-96.802;2023-06-05T07:22:05;6.45;;;4.45;;
19808;SDS011;48538;32.784;-96.802;2023-06-05T07:24:32;7.63;;;4.70;;
19808;SDS011;48538;32.784;-96.802;2023-06-05T07:27:04;7.22;;;4.82;;
19808;SDS011;48538;32.784;-96.802;2023-06-05T07:29:30;6.47;;;4.70;;
19808;SDS011;48538;32.784;-96.802;2023-06-05T07:31:57;8.32;;;4.28;;
19808;SDS011;48538;32.784;-96.802;2023-06-05T07:34:24;6.55;;;4.68;;
19808;SDS011;48538;32.784;-96.802;2023-06-05T07:36:51;7.97;;;4.80;;
19808;SDS011;48538;32.784;-96.802;2023-06-05T07:39:19;5.00;;;4.10;;
19808;SDS011;48538;32.784;-96.802;2023-06-05T07:41:47;7.10;;;4.65;;
19808;SDS011;48538;32.784;-96.802;2023-06-05T07:44:18;7.43;;;4.60;;
19808;SDS011;48538;32.784;-96.802;2023-06-05T07:46:49;7.85;;;4.60;;
19808;SDS011;48538;32.784;-96.802;2023-06-05T07:49:15;4.88;;;3.90;;
19808;SDS011;48538;32.784;-96.802;2023-06-05T07:51:42;7.40;;;4.35;;
19808;SDS011;48538;32.784;-96.802;2023-06-05T07:54:13;5.32;;;3.88;;
19808;SDS011;48538;32.784;-96.802;2023-06-05T07:56:41;5.82;;;3.90;;
19808;SDS011;48538;32.784;-96.802;2023-06-05T07:59:07;8.10;;;3.95;;
19808;SDS011;48538;32.784;-96.802;2023-06-05T08:01:34;6.70;;;4.32;;
19808;SDS011;48538;32.784;-96.802;2023-06-05T08:04:02;6.55;;;3.78;;
19808;SDS011;48538;32.784;-96.802;2023-06-05T08:06:29;5.13;;;4.00;;
19808;SDS011;48538;32.784;-96.802;2023-06-05T08:08:58;5.70;;;3.50;;
19808;SDS011;48538;32.784;-96.802;2023-06-05T08:11:25;6.20;;;3.38;;
19808;SDS011;48538;32.784;-96.802;2023-06-05T08:13:52;5.28;;;3.20;;
19808;SDS011;48538;32.784;-96.802;2023-06-05T08:16:18;3.40;;;2.83;;
19808;SDS011;48538;32.784;-96.802;2023-06-05T08:18:45;3.63;;;2.72;;
19808;SDS011;48538;32.784;-96.802;2023-06-05T08:21:12;3.35;;;2.55;;
19808;SDS011;48538;32.784;-96.802;2023-06-05T08:23:38;3.83;;;2.80;;
19808;SDS011;48538;32.784;-96.802;2023-06-05T08:26:05;4.05;;;2.90;;
19808;SDS011;48538;32.784;-96.802;2023-06-05T08:28:42;3.92;;;2.58;;
19808;SDS011;48538;32.784;-96.802;2023-06-05T08:31:08;4.13;;;2.88;;
19808;SDS011;48538;32.784;-96.802;2023-06-05T08:33:35;5.25;;;2.88;;
19808;SDS011;48538;32.784;-96.802;2023-06-05T08:36:03;3.63;;;2.67;;
19808;SDS011;48538;32.784;-96.802;2023-06-05T08:38:31;4.03;;;3.08;;
19808;SDS011;48538;32.784;-96.802;2023-06-05T08:41:01;4.95;;;3.22;;
19808;SDS011;48538;32.784;-96.802;2023-06-05T08:43:39;4.38;;;3.13;;
19808;SDS011;48538;32.784;-96.802;2023-06-05T08:46:10;3.92;;;3.25;;
19808;SDS011;48538;32.784;-96.802;2023-06-05T08:48:47;5.70;;;3.58;;
19808;SDS011;48538;32.784;-96.802;2023-06-05T08:51:18;4.90;;;3.22;;
19808;SDS011;48538;32.784;-96.802;2023-06-05T08:53:54;4.18;;;3.03;;
19808;SDS011;48538;32.784;-96.802;2023-06-05T08:56:26;4.32;;;3.00;;
19808;SDS011;48538;32.784;-96.802;2023-06-05T08:58:53;3.58;;;2.45;;
19808;SDS011;48538;32.784;-96.802;2023-06-05T09:01:22;3.35;;;2.33;;
19808;SDS011;48538;32.784;-96.802;2023-06-05T09:03:48;3.70;;;2.55;;
19808;SDS011;48538;32.784;-96.802;2023-06-05T09:06:16;3.78;;;2.42;;
19808;SDS011;48538;32.784;-96.802;2023-06-05T09:08:42;4.70;;;3.38;;
19808;SDS011;48538;32.784;-96.802;2023-06-05T09:11:28;6.53;;;3.40;;
19808;SDS011;48538;32.784;-96.802;2023-06-05T09:13:56;4.47;;;2.72;;
19808;SDS011;48538;32.784;-96.802;2023-06-05T09:16:40;3.75;;;2.72;;
19808;SDS011;48538;32.784;-96.802;2023-06-05T09:19:11;3.10;;;2.50;;
19808;SDS011;48538;32.784;-96.802;2023-06-05T09:21:38;5.18;;;2.53;;
19808;SDS011;48538;32.784;-96.802;2023-06-05T09:29:34;3.10;;;2.40;;
19808;SDS011;48538;32.784;-96.802;2023-06-05T09:32:02;3.33;;;2.33;;
19808;SDS011;48538;32.784;-96.802;2023-06-05T09:34:31;4.47;;;2.38;;
19808;SDS011;48538;32.784;-96.802;2023-06-05T09:37:00;3.95;;;2.60;;
19808;SDS011;48538;32.784;-96.802;2023-06-05T09:39:32;5.15;;;2.70;;
19808;SDS011;48538;32.784;-96.802;2023-06-05T09:41:59;5.32;;;2.60;;
19808;SDS011;48538;32.784;-96.802;2023-06-05T09:44:26;7.40;;;3.13;;
19808;SDS011;48538;32.784;-96.802;2023-06-05T09:49:24;3.90;;;2.60;;
19808;SDS011;48538;32.784;-96.802;2023-06-05T09:51:52;3.45;;;2.33;;
19808;SDS011;48538;32.784;-96.802;2023-06-05T09:54:20;5.00;;;2.05;;
19808;SDS011;48538;32.784;-96.802;2023-06-05T09:56:47;3.33;;;2.10;;
19808;SDS011;48538;32.784;-96.802;2023-06-05T09:59:18;4.38;;;2.10;;
19808;SDS011;48538;32.784;-96.802;2023-06-05T10:01:47;5.43;;;2.53;;
19808;SDS011;48538;32.784;-96.802;2023-06-05T10:04:16;6.85;;;3.00;;
19808;SDS011;48538;32.784;-96.802;2023-06-05T10:06:45;4.53;;;2.90;;
19808;SDS011;48538;32.784;-96.802;2023-06-05T10:09:14;3.58;;;2.88;;
19808;SDS011;48538;32.784;-96.802;2023-06-05T10:11:40;5.72;;;3.40;;
19808;SDS011;48538;32.784;-96.802;2023-06-05T10:14:08;5.20;;;3.13;;
19808;SDS011;48538;32.784;-96.802;2023-06-05T10:16:35;6.03;;;3.33;;
19808;SDS011;48538;32.784;-96.802;2023-06-05T10:19:03;5.38;;;3.33;;
19808;SDS011;48538;32.784;-96.802;2023-06-05T10:21:30;5.18;;;3.17;;
19808;SDS011;48538;32.784;-96.802;2023-06-05T10:24:06;5.20;;;3.13;;
19808;SDS011;48538;32.784;-96.802;2023-06-05T10:32:22;5.70;;;3.30;;
19808;SDS011;48538;32.784;-96.802;2023-06-05T10:37:52;6.47;;;3.50;;
19808;SDS011;48538;32.784;-96.802;2023-06-05T10:40:25;5.45;;;3.45;;
19808;SDS011;48538;32.784;-96.802;2023-06-05T10:42:52;4.78;;;3.22;;
19808;SDS011;48538;32.784;-96.802;2023-06-05T10:45:30;5.82;;;3.58;;
19808;SDS011;48538;32.784;-96.802;2023-06-05T10:47:57;5.72;;;3.42;;
19808;SDS011;48538;32.784;-96.802;2023-06-05T10:50:24;4.57;;;3.17;;
19808;SDS011;48538;32.784;-96.802;2023-06-05T10:52:52;6.20;;;3.83;;
19808;SDS011;48538;32.784;-96.802;2023-06-05T10:55:22;6.20;;;3.88;;
19808;SDS011;48538;32.784;-96.802;2023-06-05T11:00:28;5.07;;;3.33;;
19808;SDS011;48538;32.784;-96.802;2023-06-05T11:02:59;5.85;;;4.05;;
19808;SDS011;48538;32.784;-96.802;2023-06-05T11:05:26;6.85;;;3.55;;
19808;SDS011;48538;32.784;-96.802;2023-06-05T11:08:11;6.28;;;3.60;;
19808;SDS011;48538;32.784;-96.802;2023-06-05T11:11:25;4.85;;;3.20;;
19808;SDS011;48538;32.784;-96.802;2023-06-05T11:16:27;6.50;;;4.03;;
19808;SDS011;48538;32.784;-96.802;2023-06-05T11:22:04;5.32;;;3.10;;
19808;SDS011;48538;32.784;-96.802;2023-06-05T11:24:37;4.35;;;3.00;;
19808;SDS011;48538;32.784;-96.802;2023-06-05T11:27:06;4.82;;;3.20;;
19808;SDS011;48538;32.784;-96.802;2023-06-05T11:29:34;3.38;;;2.50;;
19808;SDS011;48538;32.784;-96.802;2023-06-05T11:32:10;4.82;;;3.40;;
19808;SDS011;48538;32.784;-96.802;2023-06-05T11:34:38;6.03;;;3.28;;
19808;SDS011;48538;32.784;-96.802;2023-06-05T11:37:17;6.72;;;3.65;;
19808;SDS011;48538;32.784;-96.802;2023-06-05T11:39:44;7.72;;;3.55;;
19808;SDS011;48538;32.784;-96.802;2023-06-05T11:42:10;5.97;;;3.80;;
19808;SDS011;48538;32.784;-96.802;2023-06-05T11:44:36;6.70;;;4.40;;
19808;SDS011;48538;32.784;-96.802;2023-06-05T11:47:03;6.38;;;3.92;;
19808;SDS011;48538;32.784;-96.802;2023-06-05T11:49:30;6.45;;;3.88;;
19808;SDS011;48538;32.784;-96.802;2023-06-05T11:51:56;6.28;;;3.28;;
19808;SDS011;48538;32.784;-96.802;2023-06-05T11:54:24;9.20;;;3.38;;
19808;SDS011;48538;32.784;-96.802;2023-06-05T11:56:58;5.80;;;3.05;;
19808;SDS011;48538;32.784;-96.802;2023-06-05T11:59:33;5.15;;;3.63;;
19808;SDS011;48538;32.784;-96.802;2023-06-05T12:02:03;4.70;;;3.10;;
19808;SDS011;48538;32.784;-96.802;2023-06-05T12:04:33;4.28;;;2.97;;
19808;SDS011;48538;32.784;-96.802;2023-06-05T12:07:00;4.85;;;3.20;;
19808;SDS011;48538;32.784;-96.802;2023-06-05T12:09:28;5.22;;;3.00;;
19808;SDS011;48538;32.784;-96.802;2023-06-05T12:12:06;4.45;;;2.95;;
19808;SDS011;48538;32.784;-96.802;2023-06-05T12:14:33;4.18;;;2.97;;
19808;SDS011;48538;32.784;-96.802;2023-06-05T12:17:00;5.43;;;2.97;;
19808;SDS011;48538;32.784;-96.802;2023-06-05T12:19:35;4.65;;;3.45;;
19808;SDS011;48538;32.784;-96.802;2023-06-05T12:22:02;4.57;;;3.40;;
19808;SDS011;48538;32.784;-96.802;2023-06-05T12:24:30;5.57;;;3.53;;
19808;SDS011;48538;32.784;-96.802;2023-06-05T12:26:58;6.13;;;4.18;;
19808;SDS011;48538;32.784;-96.802;2023-06-05T12:29:36;7.15;;;3.80;;
19808;SDS011;48538;32.784;-96.802;2023-06-05T12:32:19;9.13;;;4.30;;
19808;SDS011;48538;32.784;-96.802;2023-06-05T12:34:49;5.00;;;3.65;;
19808;SDS011;48538;32.784;-96.802;2023-06-05T12:37:27;5.07;;;3.55;;
19808;SDS011;48538;32.784;-96.802;2023-06-05T12:39:57;7.93;;;4.50;;
19808;SDS011;48538;32.784;-96.802;2023-06-05T12:42:24;6.15;;;4.38;;
19808;SDS011;48538;32.784;-96.802;2023-06-05T12:44:50;6.38;;;3.97;;
19808;SDS011;48538;32.784;-96.802;2023-06-05T12:47:17;8.65;;;4.47;;
19808;SDS011;48538;32.784;-96.802;2023-06-05T12:49:43;9.30;;;4.32;;
19808;SDS011;48538;32.784;-96.802;2023-06-05T12:52:09;6.07;;;4.30;;
19808;SDS011;48538;32.784;-96.802;2023-06-05T12:54:36;7.53;;;4.43;;
19808;SDS011;48538;32.784;-96.802;2023-06-05T12:57:03;7.57;;;4.07;;
19808;SDS011;48538;32.784;-96.802;2023-06-05T12:59:33;8.38;;;5.00;;
19808;SDS011;48538;32.784;-96.802;2023-06-05T13:01:59;9.52;;;4.75;;
19808;SDS011;48538;32.784;-96.802;2023-06-05T13:04:26;6.28;;;4.13;;
19808;SDS011;48538;32.784;-96.802;2023-06-05T13:06:53;8.55;;;5.18;;
19808;SDS011;48538;32.784;-96.802;2023-06-05T13:09:20;10.98;;;5.20;;
19808;SDS011;48538;32.784;-96.802;2023-06-05T13:11:46;9.32;;;4.80;;
19808;SDS011;48538;32.784;-96.802;2023-06-05T13:14:12;9.80;;;5.65;;
19808;SDS011;48538;32.784;-96.802;2023-06-05T13:16:39;9.68;;;5.00;;
19808;SDS011;48538;32.784;-96.802;2023-06-05T13:19:05;9.77;;;5.32;;
19808;SDS011;48538;32.784;-96.802;2023-06-05T13:21:31;8.82;;;5.72;;
19808;SDS011;48538;32.784;-96.802;2023-06-05T13:23:57;6.28;;;4.57;;
19808;SDS011;48538;32.784;-96.802;2023-06-05T13:26:24;9.25;;;5.30;;
19808;SDS011;48538;32.784;-96.802;2023-06-05T13:28:51;11.32;;;5.47;;
19808;SDS011;48538;32.784;-96.802;2023-06-05T13:31:17;9.75;;;5.30;;
19808;SDS011;48538;32.784;-96.802;2023-06-05T13:33:44;7.88;;;5.30;;
19808;SDS011;48538;32.784;-96.802;2023-06-05T13:36:10;9.93;;;5.57;;
19808;SDS011;48538;32.784;-96.802;2023-06-05T13:38:36;6.45;;;4.68;;
19808;SDS011;48538;32.784;-96.802;2023-06-05T13:41:03;7.78;;;5.45;;
19808;SDS011;48538;32.784;-96.802;2023-06-05T13:43:30;7.50;;;4.85;;
19808;SDS011;48538;32.784;-96.802;2023-06-05T13:45:57;12.13;;;6.18;;
19808;SDS011;48538;32.784;-96.802;2023-06-05T13:48:24;8.48;;;5.03;;
19808;SDS011;48538;32.784;-96.802;2023-06-05T13:50:50;7.78;;;4.95;;
19808;SDS011;48538;32.784;-96.802;2023-06-05T13:53:16;9.35;;;5.25;;
19808;SDS011;48538;32.784;-96.802;2023-06-05T13:55:43;7.05;;;4.32;;
19808;SDS011;48538;32.784;-96.802;2023-06-05T13:58:12;7.13;;;4.60;;
19808;SDS011;48538;32.784;-96.802;2023-06-05T14:00:38;7.03;;;4.38;;
19808;SDS011;48538;32.784;-96.802;2023-06-05T14:03:04;8.93;;;4.68;;
19808;SDS011;48538;32.784;-96.802;2023-06-05T14:05:31;6.80;;;4.10;;
19808;SDS011;48538;32.784;-96.802;2023-06-05T14:07:57;5.50;;;4.30;;
19808;SDS011;48538;32.784;-96.802;2023-06-05T14:10:24;7.38;;;4.30;;
19808;SDS011;48538;32.784;-96.802;2023-06-05T14:12:51;6.65;;;4.43;;
19808;SDS011;48538;32.784;-96.802;2023-06-05T14:15:18;7.00;;;4.90;;
19808;SDS011;48538;32.784;-96.802;2023-06-05T14:17:49;6.97;;;5.03;;
19808;SDS011;48538;32.784;-96.802;2023-06-05T14:20:16;7.20;;;4.65;;
19808;SDS011;48538;32.784;-96.802;2023-06-05T14:22:44;9.45;;;4.90;;
19808;SDS011;48538;32.784;-96.802;2023-06-05T14:25:10;6.97;;;4.47;;
19808;SDS011;48538;32.784;-96.802;2023-06-05T14:27:36;10.25;;;4.65;;
19808;SDS011;48538;32.784;-96.802;2023-06-05T14:30:03;7.22;;;4.70;;
19808;SDS011;48538;32.784;-96.802;2023-06-05T14:32:29;9.75;;;5.68;;
19808;SDS011;48538;32.784;-96.802;2023-06-05T14:34:56;12.77;;;5.93;;
19808;SDS011;48538;32.784;-96.802;2023-06-05T14:37:22;10.38;;;6.30;;
19808;SDS011;48538;32.784;-96.802;2023-06-05T14:39:48;10.15;;;5.63;;
19808;SDS011;48538;32.784;-96.802;2023-06-05T14:42:16;11.10;;;5.13;;
19808;SDS011;48538;32.784;-96.802;2023-06-05T14:44:42;8.77;;;5.05;;
19808;SDS011;48538;32.784;-96.802;2023-06-05T14:47:08;10.68;;;5.85;;
19808;SDS011;48538;32.784;-96.802;2023-06-05T14:49:35;11.52;;;6.35;;
19808;SDS011;48538;32.784;-96.802;2023-06-05T14:52:01;8.18;;;5.07;;
19808;SDS011;48538;32.784;-96.802;2023-06-05T14:54:27;9.98;;;5.47;;
19808;SDS011;48538;32.784;-96.802;2023-06-05T14:56:54;7.43;;;5.05;;
19808;SDS011;48538;32.784;-96.802;2023-06-05T14:59:20;7.28;;;5.10;;